Airfield :
LOGIN :

Register | Disclaimer

   EN    FR    IT 

 










Legend :    VFR   Marginal VFR   IFR   Intensive IFR   Very Intensive IFR
Visi :
Ceiling :
>= 8 km
>= 3000ft
5 to 8 km
1000 to 3000 ft
1500m to 5 km
500 to 1000 ft
800 to 1500m
200 to 500 ft
< 800m
< 200 ft
Symbols :   Thunderstorms  Fog  Heavy snow  Heavy precipitations  Wind > 20 kt
SIGMETs :     Misc.  Thunderstorms  Icing  Turbulence  Mountain Waves  Volcanic Ashes






- Airport Elevation : 885 ft
- IATA code : BAS


LFSB - Bale-Mulhouse

CURRENT METAR :
  • 281830Z AUTO 34006KT CAVOK 12/02 Q1016 NOSIG

EXPIRED METARs :
  • 281800Z AUTO 35006KT 9999 FEW052 SCT074 BKN088 13/03 Q1015 NOSIG
  • 281730Z AUTO 36007KT 9999 FEW046 BKN100 15/03 Q1015 NOSIG
  • 281700Z AUTO 35008KT CAVOK 16/03 Q1015 NOSIG
  • 281630Z AUTO 36008KT 330V040 9999 FEW008 BKN098 16/03 Q1015 NOSIG
  • 281600Z AUTO 01010KT 9999 FEW049 BKN098 17/03 Q1015 NOSIG

TAF TAF LFSB
Valid from the 28 at 18:00 until the 29 at 18:00 UTC


281700Z 2818/2918 35008KT CAVOK
FM290600 36010G20KT 9999 SCT020 BKN050
PROB40
TEMPO 2910/2918 -RA BKN012
Met : +33 3 89 90 31 11



MET'MAP, your aeronautical weather chart ! - Copyright ORBIFLY December 2007 - Disclaimer

ORBIFLY MET'MAP TEAM :

Programming & Development : Alexandra Zaïnal
Concept & original design : Baudouin d'Aumeries
Assistance for programming : Marc-Olivier Méhu
Technical & hardware support : Manuel Goepfert

Contact : metmap@orbifly.com




SOURCES & CREDITS :

   NOAA